sensor_id;sensor_type;location;lat;lon;timestamp;pressure;altitude;pressure_sealevel;temperature;humidity
77159;BME280;66129;45.890;13.714;2022-12-29T00:01:48;101819.84;;;7.88;89.26
77159;BME280;66129;45.890;13.714;2022-12-29T00:04:14;101826.06;;;7.93;88.83
77159;BME280;66129;45.890;13.714;2022-12-29T00:06:40;101828.16;;;7.84;89.22
77159;BME280;66129;45.890;13.714;2022-12-29T00:09:06;101810.41;;;7.68;90.05
77159;BME280;66129;45.890;13.714;2022-12-29T00:11:32;101813.81;;;7.69;89.91
77159;BME280;66129;45.890;13.714;2022-12-29T00:13:57;101797.84;;;7.56;90.35
77159;BME280;66129;45.890;13.714;2022-12-29T00:16:43;101790.19;;;7.56;90.16
77159;BME280;66129;45.890;13.714;2022-12-29T00:19:11;101813.31;;;7.59;89.95
77159;BME280;66129;45.890;13.714;2022-12-29T00:21:56;101808.69;;;7.52;90.37
77159;BME280;66129;45.890;13.714;2022-12-29T00:24:40;101808.00;;;7.54;90.19
77159;BME280;66129;45.890;13.714;2022-12-29T00:27:25;101823.00;;;7.66;90.88
77159;BME280;66129;45.890;13.714;2022-12-29T00:30:14;101830.00;;;7.69;90.43
77159;BME280;66129;45.890;13.714;2022-12-29T00:32:58;101786.47;;;7.49;89.78
77159;BME280;66129;45.890;13.714;2022-12-29T00:35:46;101811.63;;;7.59;90.26
77159;BME280;66129;45.890;13.714;2022-12-29T00:38:13;101788.72;;;7.43;90.29
77159;BME280;66129;45.890;13.714;2022-12-29T00:40:57;101774.03;;;7.38;90.49
77159;BME280;66129;45.890;13.714;2022-12-29T00:43:41;101797.44;;;7.47;90.18
77159;BME280;66129;45.890;13.714;2022-12-29T00:46:24;101816.44;;;7.53;90.53
77159;BME280;66129;45.890;13.714;2022-12-29T00:48:50;101791.78;;;7.36;90.66
77159;BME280;66129;45.890;13.714;2022-12-29T00:51:34;101779.56;;;7.29;90.98
77159;BME280;66129;45.890;13.714;2022-12-29T00:53:59;101785.53;;;7.30;91.27
77159;BME280;66129;45.890;13.714;2022-12-29T00:56:25;101800.63;;;7.43;91.15
77159;BME280;66129;45.890;13.714;2022-12-29T00:58:50;101787.38;;;7.32;92.10
77159;BME280;66129;45.890;13.714;2022-12-29T01:01:16;101789.13;;;7.33;91.24
77159;BME280;66129;45.890;13.714;2022-12-29T01:03:41;101789.31;;;7.38;91.01
77159;BME280;66129;45.890;13.714;2022-12-29T01:06:09;101814.03;;;7.56;89.98
77159;BME280;66129;45.890;13.714;2022-12-29T01:08:35;101796.09;;;7.37;90.63
77159;BME280;66129;45.890;13.714;2022-12-29T01:11:11;101791.56;;;7.32;91.45
77159;BME280;66129;45.890;13.714;2022-12-29T01:13:38;101768.84;;;7.19;92.10
77159;BME280;66129;45.890;13.714;2022-12-29T01:16:04;101793.16;;;7.30;91.55
77159;BME280;66129;45.890;13.714;2022-12-29T01:18:30;101802.72;;;7.34;91.33
77159;BME280;66129;45.890;13.714;2022-12-29T01:21:04;101800.97;;;7.33;92.09
77159;BME280;66129;45.890;13.714;2022-12-29T01:23:30;101787.84;;;7.25;91.42
77159;BME280;66129;45.890;13.714;2022-12-29T01:25:56;101787.84;;;7.25;91.72
77159;BME280;66129;45.890;13.714;2022-12-29T01:28:22;101812.88;;;7.32;92.05
77159;BME280;66129;45.890;13.714;2022-12-29T01:30:47;101802.25;;;7.25;91.89
77159;BME280;66129;45.890;13.714;2022-12-29T01:33:13;101795.97;;;7.34;91.89
77159;BME280;66129;45.890;13.714;2022-12-29T01:35:39;101755.84;;;7.14;91.67
77159;BME280;66129;45.890;13.714;2022-12-29T01:38:04;101793.31;;;7.33;92.20
77159;BME280;66129;45.890;13.714;2022-12-29T01:40:30;101756.91;;;7.18;92.02
77159;BME280;66129;45.890;13.714;2022-12-29T01:42:55;101760.53;;;7.23;90.90
77159;BME280;66129;45.890;13.714;2022-12-29T01:45:21;101777.81;;;7.28;91.17
77159;BME280;66129;45.890;13.714;2022-12-29T01:48:01;101777.97;;;7.31;90.96
77159;BME280;66129;45.890;13.714;2022-12-29T01:50:39;101769.56;;;7.34;91.84
77159;BME280;66129;45.890;13.714;2022-12-29T01:53:11;101772.47;;;7.41;90.67
77159;BME280;66129;45.890;13.714;2022-12-29T01:55:45;101771.97;;;7.48;91.05
77159;BME280;66129;45.890;13.714;2022-12-29T01:58:14;101752.53;;;7.33;90.68
77159;BME280;66129;45.890;13.714;2022-12-29T02:00:41;101751.88;;;7.37;90.91
77159;BME280;66129;45.890;13.714;2022-12-29T02:03:07;101755.97;;;7.33;91.77
77159;BME280;66129;45.890;13.714;2022-12-29T02:06:08;101748.44;;;7.36;91.42
77159;BME280;66129;45.890;13.714;2022-12-29T02:08:37;101745.47;;;7.45;91.05
77159;BME280;66129;45.890;13.714;2022-12-29T02:11:03;101749.75;;;7.46;90.46
77159;BME280;66129;45.890;13.714;2022-12-29T02:13:28;101748.56;;;7.39;90.56
77159;BME280;66129;45.890;13.714;2022-12-29T02:18:32;101771.53;;;7.57;91.19
77159;BME280;66129;45.890;13.714;2022-12-29T02:29:27;101717.75;;;7.52;91.41
77159;BME280;66129;45.890;13.714;2022-12-29T02:40:28;101711.75;;;7.52;91.39
77159;BME280;66129;45.890;13.714;2022-12-29T02:43:19;101721.84;;;7.49;92.32
77159;BME280;66129;45.890;13.714;2022-12-29T02:45:53;101724.03;;;7.41;92.49
77159;BME280;66129;45.890;13.714;2022-12-29T02:48:43;101735.16;;;7.43;92.33
77159;BME280;66129;45.890;13.714;2022-12-29T02:51:17;101688.91;;;7.36;91.85
77159;BME280;66129;45.890;13.714;2022-12-29T02:53:44;101708.69;;;7.59;91.23
77159;BME280;66129;45.890;13.714;2022-12-29T02:56:29;101725.63;;;7.57;91.54
77159;BME280;66129;45.890;13.714;2022-12-29T02:58:54;101721.63;;;7.44;91.77
77159;BME280;66129;45.890;13.714;2022-12-29T03:01:26;101752.72;;;7.55;92.30
77159;BME280;66129;45.890;13.714;2022-12-29T03:15:02;101699.41;;;7.42;92.27
77159;BME280;66129;45.890;13.714;2022-12-29T03:18:19;101717.09;;;7.56;93.14
77159;BME280;66129;45.890;13.714;2022-12-29T03:20:55;101719.22;;;7.47;93.50
77159;BME280;66129;45.890;13.714;2022-12-29T03:23:24;101713.09;;;7.44;92.53
77159;BME280;66129;45.890;13.714;2022-12-29T03:25:55;101700.25;;;7.42;92.77
77159;BME280;66129;45.890;13.714;2022-12-29T03:28:36;101696.84;;;7.42;92.95
77159;BME280;66129;45.890;13.714;2022-12-29T03:31:04;101734.16;;;7.57;93.13
77159;BME280;66129;45.890;13.714;2022-12-29T03:33:32;101706.41;;;7.46;93.07
77159;BME280;66129;45.890;13.714;2022-12-29T03:36:01;101719.31;;;7.49;93.42
77159;BME280;66129;45.890;13.714;2022-12-29T03:41:10;101705.38;;;7.42;92.53
77159;BME280;66129;45.890;13.714;2022-12-29T03:43:37;101705.50;;;7.45;92.59
77159;BME280;66129;45.890;13.714;2022-12-29T03:46:02;101710.81;;;7.50;92.63
77159;BME280;66129;45.890;13.714;2022-12-29T03:48:28;101723.88;;;7.56;92.08
77159;BME280;66129;45.890;13.714;2022-12-29T03:50:53;101712.84;;;7.57;92.31
77159;BME280;66129;45.890;13.714;2022-12-29T03:53:19;101701.19;;;7.62;92.13
77159;BME280;66129;45.890;13.714;2022-12-29T03:55:44;101701.00;;;7.57;91.99
77159;BME280;66129;45.890;13.714;2022-12-29T03:58:10;101697.50;;;7.55;91.65
77159;BME280;66129;45.890;13.714;2022-12-29T04:00:35;101703.31;;;7.53;91.94
77159;BME280;66129;45.890;13.714;2022-12-29T04:03:01;101706.66;;;7.52;92.05
77159;BME280;66129;45.890;13.714;2022-12-29T04:05:26;101686.72;;;7.43;92.53
77159;BME280;66129;45.890;13.714;2022-12-29T04:07:52;101679.28;;;7.48;92.07
77159;BME280;66129;45.890;13.714;2022-12-29T04:10:17;101674.44;;;7.54;91.65
77159;BME280;66129;45.890;13.714;2022-12-29T04:12:43;101692.56;;;7.77;91.00
77159;BME280;66129;45.890;13.714;2022-12-29T04:15:10;101689.31;;;7.62;91.10
77159;BME280;66129;45.890;13.714;2022-12-29T04:17:36;101679.16;;;7.45;90.73
77159;BME280;66129;45.890;13.714;2022-12-29T04:20:01;101686.06;;;7.47;91.14
77159;BME280;66129;45.890;13.714;2022-12-29T04:22:45;101691.75;;;7.42;91.60
77159;BME280;66129;45.890;13.714;2022-12-29T04:25:11;101665.81;;;7.33;91.59
77159;BME280;66129;45.890;13.714;2022-12-29T04:27:36;101674.22;;;7.30;91.88
77159;BME280;66129;45.890;13.714;2022-12-29T04:30:02;101682.81;;;7.32;92.40
77159;BME280;66129;45.890;13.714;2022-12-29T04:32:28;101683.66;;;7.33;91.90
77159;BME280;66129;45.890;13.714;2022-12-29T04:34:53;101699.41;;;7.42;92.71
77159;BME280;66129;45.890;13.714;2022-12-29T04:37:19;101693.13;;;7.35;92.86
77159;BME280;66129;45.890;13.714;2022-12-29T04:39:44;101698.16;;;7.34;92.97
77159;BME280;66129;45.890;13.714;2022-12-29T04:42:10;101717.63;;;7.32;92.11
77159;BME280;66129;45.890;13.714;2022-12-29T04:44:35;101707.13;;;7.26;92.47
77159;BME280;66129;45.890;13.714;2022-12-29T04:47:01;101716.03;;;7.34;92.43
77159;BME280;66129;45.890;13.714;2022-12-29T04:49:26;101711.22;;;7.22;92.25
77159;BME280;66129;45.890;13.714;2022-12-29T04:51:51;101706.81;;;7.20;92.80
77159;BME280;66129;45.890;13.714;2022-12-29T04:54:17;101707.50;;;7.16;92.62
77159;BME280;66129;45.890;13.714;2022-12-29T04:56:42;101706.47;;;7.12;93.31
77159;BME280;66129;45.890;13.714;2022-12-29T04:59:08;101697.66;;;7.06;94.10
77159;BME280;66129;45.890;13.714;2022-12-29T05:01:33;101711.66;;;7.14;93.27
77159;BME280;66129;45.890;13.714;2022-12-29T05:03:59;101728.06;;;7.19;93.58
77159;BME280;66129;45.890;13.714;2022-12-29T05:06:24;101729.78;;;7.20;92.96
77159;BME280;66129;45.890;13.714;2022-12-29T05:08:50;101701.00;;;7.22;92.42
77159;BME280;66129;45.890;13.714;2022-12-29T05:11:15;101723.81;;;7.37;92.13
77159;BME280;66129;45.890;13.714;2022-12-29T05:13:41;101714.13;;;7.30;92.79
77159;BME280;66129;45.890;13.714;2022-12-29T05:16:06;101706.47;;;7.30;92.42
77159;BME280;66129;45.890;13.714;2022-12-29T05:18:32;101725.13;;;7.46;91.83
77159;BME280;66129;45.890;13.714;2022-12-29T05:20:57;101732.25;;;7.53;92.22
77159;BME280;66129;45.890;13.714;2022-12-29T05:23:23;101715.66;;;7.44;92.85
77159;BME280;66129;45.890;13.714;2022-12-29T05:25:48;101712.97;;;7.41;92.94
77159;BME280;66129;45.890;13.714;2022-12-29T05:28:14;101725.56;;;7.55;92.42
77159;BME280;66129;45.890;13.714;2022-12-29T05:30:39;101719.22;;;7.47;92.54
77159;BME280;66129;45.890;13.714;2022-12-29T05:33:05;101715.13;;;7.51;92.85
77159;BME280;66129;45.890;13.714;2022-12-29T05:35:32;101709.75;;;7.45;92.27
77159;BME280;66129;45.890;13.714;2022-12-29T05:37:57;101700.25;;;7.42;92.55
77159;BME280;66129;45.890;13.714;2022-12-29T05:40:23;101725.09;;;7.64;92.12
77159;BME280;66129;45.890;13.714;2022-12-29T05:42:48;101706.41;;;7.46;91.79
77159;BME280;66129;45.890;13.714;2022-12-29T05:45:14;101714.31;;;7.52;92.13
77159;BME280;66129;45.890;13.714;2022-12-29T05:47:39;101734.50;;;7.65;91.85
77159;BME280;66129;45.890;13.714;2022-12-29T05:50:05;101715.06;;;7.49;92.74
77159;BME280;66129;45.890;13.714;2022-12-29T05:52:31;101723.06;;;7.57;92.73
77159;BME280;66129;45.890;13.714;2022-12-29T05:54:56;101713.66;;;7.56;92.16
77159;BME280;66129;45.890;13.714;2022-12-29T05:57:22;101727.16;;;7.53;92.55
77159;BME280;66129;45.890;13.714;2022-12-29T05:59:47;101714.63;;;7.40;93.11
77159;BME280;66129;45.890;13.714;2022-12-29T06:02:12;101715.72;;;7.45;92.71
77159;BME280;66129;45.890;13.714;2022-12-29T06:04:38;101701.97;;;7.42;92.10
77159;BME280;66129;45.890;13.714;2022-12-29T06:07:03;101734.00;;;7.71;91.88
77159;BME280;66129;45.890;13.714;2022-12-29T06:09:29;101703.03;;;7.64;91.54
77159;BME280;66129;45.890;13.714;2022-12-29T06:11:54;101702.13;;;7.64;91.45
77159;BME280;66129;45.890;13.714;2022-12-29T06:14:20;101704.03;;;7.68;91.59
77159;BME280;66129;45.890;13.714;2022-12-29T06:16:45;101705.16;;;7.55;91.20
77159;BME280;66129;45.890;13.714;2022-12-29T06:19:11;101731.91;;;7.63;91.74
77159;BME280;66129;45.890;13.714;2022-12-29T06:21:36;101717.09;;;7.56;91.85
77159;BME280;66129;45.890;13.714;2022-12-29T06:24:04;101702.97;;;7.45;91.73
77159;BME280;66129;45.890;13.714;2022-12-29T06:26:29;101716.66;;;7.47;91.86
77159;BME280;66129;45.890;13.714;2022-12-29T06:28:55;101731.22;;;7.50;92.35
77159;BME280;66129;45.890;13.714;2022-12-29T06:31:20;101711.91;;;7.37;92.67
77159;BME280;66129;45.890;13.714;2022-12-29T06:33:46;101719.00;;;7.43;92.79
77159;BME280;66129;45.890;13.714;2022-12-29T06:36:14;101714.56;;;7.39;92.92
77159;BME280;66129;45.890;13.714;2022-12-29T06:38:39;101727.09;;;7.34;91.92
77159;BME280;66129;45.890;13.714;2022-12-29T06:41:04;101727.00;;;7.15;91.21
77159;BME280;66129;45.890;13.714;2022-12-29T06:43:30;101708.16;;;6.94;91.76
77159;BME280;66129;45.890;13.714;2022-12-29T06:45:57;101699.75;;;6.97;93.50
77159;BME280;66129;45.890;13.714;2022-12-29T06:48:23;101714.84;;;7.10;93.69
77159;BME280;66129;45.890;13.714;2022-12-29T06:50:48;101730.31;;;7.13;94.45
77159;BME280;66129;45.890;13.714;2022-12-29T06:53:13;101711.19;;;7.05;94.49
77159;BME280;66129;45.890;13.714;2022-12-29T06:55:39;101707.13;;;7.08;94.35
77159;BME280;66129;45.890;13.714;2022-12-29T06:58:04;101701.00;;;7.05;93.85
77159;BME280;66129;45.890;13.714;2022-12-29T07:00:30;101720.91;;;7.12;93.70
77159;BME280;66129;45.890;13.714;2022-12-29T07:02:56;101720.25;;;7.16;94.35
77159;BME280;66129;45.890;13.714;2022-12-29T07:05:23;101715.97;;;7.15;94.40
77159;BME280;66129;45.890;13.714;2022-12-29T07:07:50;101729.66;;;7.17;92.84
77159;BME280;66129;45.890;13.714;2022-12-29T07:10:16;101704.22;;;7.01;92.28
77159;BME280;66129;45.890;13.714;2022-12-29T07:12:41;101719.97;;;7.10;92.59
77159;BME280;66129;45.890;13.714;2022-12-29T07:15:07;101715.50;;;7.06;93.02
77159;BME280;66129;45.890;13.714;2022-12-29T07:17:33;101722.66;;;7.13;94.62
77159;BME280;66129;45.890;13.714;2022-12-29T07:19:58;101741.47;;;7.32;94.83
77159;BME280;66129;45.890;13.714;2022-12-29T07:22:23;101713.63;;;7.19;92.76
77159;BME280;66129;45.890;13.714;2022-12-29T07:24:49;101711.91;;;7.20;93.58
77159;BME280;66129;45.890;13.714;2022-12-29T07:27:15;101717.41;;;7.27;94.88
77159;BME280;66129;45.890;13.714;2022-12-29T07:29:40;101742.75;;;7.42;94.88
77159;BME280;66129;45.890;13.714;2022-12-29T07:32:06;101707.41;;;7.32;94.11
77159;BME280;66129;45.890;13.714;2022-12-29T07:34:32;101742.81;;;7.61;93.24
77159;BME280;66129;45.890;13.714;2022-12-29T07:36:57;101717.75;;;7.52;92.45
77159;BME280;66129;45.890;13.714;2022-12-29T07:39:25;101723.50;;;7.48;92.64
77159;BME280;66129;45.890;13.714;2022-12-29T07:41:51;101743.84;;;7.64;93.68
77159;BME280;66129;45.890;13.714;2022-12-29T07:44:16;101715.00;;;7.48;93.88
77159;BME280;66129;45.890;13.714;2022-12-29T07:46:42;101734.06;;;7.56;93.48
77159;BME280;66129;45.890;13.714;2022-12-29T07:49:08;101758.28;;;7.64;93.35
77159;BME280;66129;45.890;13.714;2022-12-29T07:51:33;101760.81;;;7.64;93.77
77159;BME280;66129;45.890;13.714;2022-12-29T07:54:02;101724.25;;;7.46;94.25
77159;BME280;66129;45.890;13.714;2022-12-29T07:56:28;101716.59;;;7.46;93.44
77159;BME280;66129;45.890;13.714;2022-12-29T07:58:53;101732.94;;;7.68;93.22
77159;BME280;66129;45.890;13.714;2022-12-29T08:01:19;101716.44;;;7.60;92.59
77159;BME280;66129;45.890;13.714;2022-12-29T08:03:44;101734.50;;;7.65;92.55
77159;BME280;66129;45.890;13.714;2022-12-29T08:06:11;101754.16;;;7.84;92.79
77159;BME280;66129;45.890;13.714;2022-12-29T08:08:39;101743.94;;;7.84;92.75
77159;BME280;66129;45.890;13.714;2022-12-29T08:11:05;101730.91;;;7.78;92.57
77159;BME280;66129;45.890;13.714;2022-12-29T08:13:30;101723.19;;;7.77;92.60
77159;BME280;66129;45.890;13.714;2022-12-29T08:15:57;101718.06;;;7.77;92.75
77159;BME280;66129;45.890;13.714;2022-12-29T08:18:23;101738.84;;;7.84;92.51
77159;BME280;66129;45.890;13.714;2022-12-29T08:20:49;101725.50;;;7.90;92.37
77159;BME280;66129;45.890;13.714;2022-12-29T08:23:14;101724.00;;;7.95;92.52
77159;BME280;66129;45.890;13.714;2022-12-29T08:25:40;101762.13;;;8.09;92.45
77159;BME280;66129;45.890;13.714;2022-12-29T08:28:05;101764.69;;;8.09;93.32
77159;BME280;66129;45.890;13.714;2022-12-29T08:30:31;101733.41;;;7.96;93.61
77159;BME280;66129;45.890;13.714;2022-12-29T08:32:56;101718.97;;;7.96;92.80
77159;BME280;66129;45.890;13.714;2022-12-29T08:35:25;101734.72;;;8.05;93.07
77159;BME280;66129;45.890;13.714;2022-12-29T08:37:50;101753.06;;;8.16;92.45
77159;BME280;66129;45.890;13.714;2022-12-29T08:40:16;101721.66;;;7.99;92.50
77159;BME280;66129;45.890;13.714;2022-12-29T08:42:41;101732.34;;;8.10;92.91
77159;BME280;66129;45.890;13.714;2022-12-29T08:45:07;101725.06;;;8.17;92.45
77159;BME280;66129;45.890;13.714;2022-12-29T08:47:33;101728.69;;;8.41;91.93
77159;BME280;66129;45.890;13.714;2022-12-29T08:49:59;101731.78;;;8.53;91.29
77159;BME280;66129;45.890;13.714;2022-12-29T08:52:25;101718.81;;;8.49;90.56
77159;BME280;66129;45.890;13.714;2022-12-29T08:54:51;101728.13;;;8.48;90.17
77159;BME280;66129;45.890;13.714;2022-12-29T08:57:17;101759.63;;;8.66;90.24
77159;BME280;66129;45.890;13.714;2022-12-29T08:59:43;101756.66;;;8.57;90.87
77159;BME280;66129;45.890;13.714;2022-12-29T09:02:11;101750.59;;;8.55;91.00
77159;BME280;66129;45.890;13.714;2022-12-29T09:04:37;101767.81;;;8.59;90.96
77159;BME280;66129;45.890;13.714;2022-12-29T09:07:02;101740.88;;;8.47;90.84
77159;BME280;66129;45.890;13.714;2022-12-29T09:09:28;101752.88;;;8.49;90.86
77159;BME280;66129;45.890;13.714;2022-12-29T09:11:53;101749.25;;;8.44;91.19
77159;BME280;66129;45.890;13.714;2022-12-29T09:14:19;101756.19;;;8.47;91.62
77159;BME280;66129;45.890;13.714;2022-12-29T09:16:44;101769.06;;;8.69;91.39
77159;BME280;66129;45.890;13.714;2022-12-29T09:19:28;101759.38;;;8.81;91.05
77159;BME280;66129;45.890;13.714;2022-12-29T09:21:53;101746.25;;;8.73;90.50
77159;BME280;66129;45.890;13.714;2022-12-29T09:24:19;101741.94;;;8.72;89.93
77159;BME280;66129;45.890;13.714;2022-12-29T09:26:44;101764.13;;;8.92;90.44
77159;BME280;66129;45.890;13.714;2022-12-29T09:29:10;101744.91;;;8.81;90.16
77159;BME280;66129;45.890;13.714;2022-12-29T09:31:35;101775.34;;;8.95;90.12
77159;BME280;66129;45.890;13.714;2022-12-29T09:34:01;101779.16;;;9.05;90.02
77159;BME280;66129;45.890;13.714;2022-12-29T09:36:26;101760.78;;;8.93;89.94
77159;BME280;66129;45.890;13.714;2022-12-29T09:38:53;101764.41;;;8.98;90.29
77159;BME280;66129;45.890;13.714;2022-12-29T09:44:06;101779.22;;;8.86;89.99
77159;BME280;66129;45.890;13.714;2022-12-29T09:46:43;101792.94;;;8.88;90.71
77159;BME280;66129;45.890;13.714;2022-12-29T09:52:11;101780.81;;;8.84;92.33
77159;BME280;66129;45.890;13.714;2022-12-29T09:55:33;101751.13;;;8.67;92.02
77159;BME280;66129;45.890;13.714;2022-12-29T09:57:46;101764.38;;;8.78;92.09
77159;BME280;66129;45.890;13.714;2022-12-29T10:00:16;101772.00;;;8.96;91.20
77159;BME280;66129;45.890;13.714;2022-12-29T10:02:59;101751.66;;;8.99;90.84
77159;BME280;66129;45.890;13.714;2022-12-29T10:05:38;101757.34;;;9.13;90.52
77159;BME280;66129;45.890;13.714;2022-12-29T10:11:05;101765.88;;;9.34;89.98
77159;BME280;66129;45.890;13.714;2022-12-29T10:16:48;101744.03;;;9.01;90.82
77159;BME280;66129;45.890;13.714;2022-12-29T10:25:18;101755.66;;;9.13;91.25
77159;BME280;66129;45.890;13.714;2022-12-29T10:27:49;101747.53;;;9.44;90.67
77159;BME280;66129;45.890;13.714;2022-12-29T10:30:15;101757.06;;;9.48;89.85
77159;BME280;66129;45.890;13.714;2022-12-29T10:32:54;101753.56;;;9.46;90.81
77159;BME280;66129;45.890;13.714;2022-12-29T10:35:40;101743.59;;;9.31;91.22
77159;BME280;66129;45.890;13.714;2022-12-29T10:38:26;101744.41;;;9.51;90.29
77159;BME280;66129;45.890;13.714;2022-12-29T10:41:11;101732.88;;;9.62;89.69
77159;BME280;66129;45.890;13.714;2022-12-29T10:43:50;101714.25;;;9.66;89.56
77159;BME280;66129;45.890;13.714;2022-12-29T10:46:28;101700.31;;;9.58;89.37
77159;BME280;66129;45.890;13.714;2022-12-29T10:48:55;101722.25;;;9.73;88.83
77159;BME280;66129;45.890;13.714;2022-12-29T10:51:27;101707.50;;;9.68;90.04
77159;BME280;66129;45.890;13.714;2022-12-29T10:59:50;101732.50;;;9.73;89.82
77159;BME280;66129;45.890;13.714;2022-12-29T11:07:39;101698.03;;;9.65;89.31
77159;BME280;66129;45.890;13.714;2022-12-29T11:13:09;101710.44;;;9.55;90.08
77159;BME280;66129;45.890;13.714;2022-12-29T11:15:47;101701.88;;;9.54;90.21
77159;BME280;66129;45.890;13.714;2022-12-29T11:18:27;101703.91;;;9.63;90.01
77159;BME280;66129;45.890;13.714;2022-12-29T11:20:59;101715.16;;;9.66;89.98
77159;BME280;66129;45.890;13.714;2022-12-29T11:23:37;101724.28;;;9.82;90.13
77159;BME280;66129;45.890;13.714;2022-12-29T11:26:15;101721.97;;;9.88;89.91
77159;BME280;66129;45.890;13.714;2022-12-29T11:28:44;101716.88;;;9.89;89.05
77159;BME280;66129;45.890;13.714;2022-12-29T11:31:10;101715.41;;;9.95;89.23
77159;BME280;66129;45.890;13.714;2022-12-29T11:33:40;101703.53;;;9.97;88.34
77159;BME280;66129;45.890;13.714;2022-12-29T11:36:08;101701.19;;;10.02;88.58
77159;BME280;66129;45.890;13.714;2022-12-29T11:38:42;101711.38;;;10.00;89.02
77159;BME280;66129;45.890;13.714;2022-12-29T11:41:13;101704.31;;;9.95;89.02
77159;BME280;66129;45.890;13.714;2022-12-29T11:43:44;101692.84;;;9.86;88.90
77159;BME280;66129;45.890;13.714;2022-12-29T11:46:20;101679.66;;;9.98;87.86
77159;BME280;66129;45.890;13.714;2022-12-29T11:48:48;101670.00;;;9.91;87.60
77159;BME280;66129;45.890;13.714;2022-12-29T11:51:22;101711.53;;;10.05;88.69
77159;BME280;66129;45.890;13.714;2022-12-29T11:53:58;101666.25;;;9.82;88.67
77159;BME280;66129;45.890;13.714;2022-12-29T11:56:39;101669.59;;;9.80;88.94
77159;BME280;66129;45.890;13.714;2022-12-29T12:01:58;101647.88;;;9.93;88.40
77159;BME280;66129;45.890;13.714;2022-12-29T12:04:34;101660.47;;;10.09;87.88
77159;BME280;66129;45.890;13.714;2022-12-29T12:07:14;101651.16;;;10.11;88.07
77159;BME280;66129;45.890;13.714;2022-12-29T12:09:46;101674.09;;;10.32;87.75
77159;BME280;66129;45.890;13.714;2022-12-29T12:12:34;101639.31;;;10.38;87.03
77159;BME280;66129;45.890;13.714;2022-12-29T12:15:02;101665.59;;;10.58;86.39
77159;BME280;66129;45.890;13.714;2022-12-29T12:20:19;101665.13;;;10.69;85.18
77159;BME280;66129;45.890;13.714;2022-12-29T12:25:31;101630.31;;;10.76;83.65
77159;BME280;66129;45.890;13.714;2022-12-29T12:28:11;101626.53;;;10.91;82.75
77159;BME280;66129;45.890;13.714;2022-12-29T12:30:45;101612.41;;;11.31;79.58
77159;BME280;66129;45.890;13.714;2022-12-29T12:33:22;101598.47;;;11.51;80.06
77159;BME280;66129;45.890;13.714;2022-12-29T12:50:01;101624.72;;;10.62;82.38
77159;BME280;66129;45.890;13.714;2022-12-29T12:52:58;101612.50;;;10.29;84.14
77159;BME280;66129;45.890;13.714;2022-12-29T13:01:42;101639.66;;;10.00;83.75
77159;BME280;66129;45.890;13.714;2022-12-29T13:06:49;101614.03;;;10.00;85.02
77159;BME280;66129;45.890;13.714;2022-12-29T13:12:35;101584.44;;;10.08;85.32
77159;BME280;66129;45.890;13.714;2022-12-29T13:17:42;101612.31;;;10.24;85.84
77159;BME280;66129;45.890;13.714;2022-12-29T13:23:13;101628.56;;;10.25;87.56
77159;BME280;66129;45.890;13.714;2022-12-29T13:25:55;101617.44;;;10.24;87.37
77159;BME280;66129;45.890;13.714;2022-12-29T13:28:31;101598.81;;;10.05;88.46
77159;BME280;66129;45.890;13.714;2022-12-29T13:31:24;101614.25;;;10.06;88.10
77159;BME280;66129;45.890;13.714;2022-12-29T13:34:39;101609.00;;;10.02;88.69
77159;BME280;66129;45.890;13.714;2022-12-29T13:37:20;101594.63;;;9.84;87.22
77159;BME280;66129;45.890;13.714;2022-12-29T13:39:54;101613.25;;;9.80;87.22
77159;BME280;66129;45.890;13.714;2022-12-29T13:42:21;101606.00;;;9.68;86.80
77159;BME280;66129;45.890;13.714;2022-12-29T13:47:37;101602.16;;;9.57;87.69
77159;BME280;66129;45.890;13.714;2022-12-29T13:50:16;101623.72;;;9.86;87.23
77159;BME280;66129;45.890;13.714;2022-12-29T13:52:55;101618.78;;;9.91;85.12
77159;BME280;66129;45.890;13.714;2022-12-29T14:00:59;101602.69;;;9.94;86.74
77159;BME280;66129;45.890;13.714;2022-12-29T14:03:46;101624.28;;;10.00;85.53
77159;BME280;66129;45.890;13.714;2022-12-29T14:08:42;101591.13;;;9.58;86.21
77159;BME280;66129;45.890;13.714;2022-12-29T14:11:11;101607.69;;;9.68;87.45
77159;BME280;66129;45.890;13.714;2022-12-29T14:13:39;101644.41;;;9.91;87.22
77159;BME280;66129;45.890;13.714;2022-12-29T14:16:06;101638.66;;;9.75;86.40
77159;BME280;66129;45.890;13.714;2022-12-29T14:18:41;101646.53;;;9.80;89.17
77159;BME280;66129;45.890;13.714;2022-12-29T14:23:38;101646.97;;;9.91;89.65
77159;BME280;66129;45.890;13.714;2022-12-29T14:28:38;101629.34;;;9.77;89.05
77159;BME280;66129;45.890;13.714;2022-12-29T14:31:32;101608.56;;;9.68;89.03
77159;BME280;66129;45.890;13.714;2022-12-29T14:37:00;101645.53;;;9.76;87.29
77159;BME280;66129;45.890;13.714;2022-12-29T14:39:41;101642.88;;;9.73;90.06
77159;BME280;66129;45.890;13.714;2022-12-29T14:44:49;101644.63;;;9.74;89.57
77159;BME280;66129;45.890;13.714;2022-12-29T14:57:42;101639.09;;;9.64;87.98
77159;BME280;66129;45.890;13.714;2022-12-29T15:02:54;101639.75;;;9.58;89.65
77159;BME280;66129;45.890;13.714;2022-12-29T15:05:29;101648.59;;;9.66;89.42
77159;BME280;66129;45.890;13.714;2022-12-29T15:07:56;101620.56;;;9.47;89.75
77159;BME280;66129;45.890;13.714;2022-12-29T15:10:23;101663.75;;;9.62;89.31
77159;BME280;66129;45.890;13.714;2022-12-29T15:12:55;101625.22;;;9.35;87.73
77159;BME280;66129;45.890;13.714;2022-12-29T15:15:25;101635.38;;;9.34;87.49
77159;BME280;66129;45.890;13.714;2022-12-29T15:17:52;101640.06;;;9.22;88.65
77159;BME280;66129;45.890;13.714;2022-12-29T15:20:31;101646.44;;;9.33;90.52
77159;BME280;66129;45.890;13.714;2022-12-29T15:23:23;101645.81;;;9.38;89.94
77159;BME280;66129;45.890;13.714;2022-12-29T15:26:21;101654.63;;;9.46;90.01